Latest Weather Observations for Maria Island

IDT60901

Issued at 4:55 pm EDT Friday 28 November 2014 (issued every 10 minutes, with the page automatically refreshed every 10 minutes)

About weather observations | Map of Hobart area stations | Latest observations for Hobart area | Other Formats
Station Details ID: 092124 Name: MARIA ISLAND (POINT LESUEUR) Lat: -42.66 Lon: 148.02 Height: 28.0 m
Data from the previous 72 hours. | See also: Recent months at Maria Island
Date/Time
EDT
Tmp

°C
App
Tmp
°C
Dew
Point
°C
Rel
Hum
%
Delta-T

°C
Wind Press
QNH
hPa
Press
MSL
hPa
Rain
since
9 am
mm
Dir
 
Spd
km/h
Gust
km/h
Spd
kts
Gust
kts
28/04:30pm 15.2 11.2 6.5 56 4.2 E 17 22 9 12 1020.9 1020.9 0.0
28/04:00pm 15.0 10.8 5.8 54 4.4 ESE 17 22 9 12 1020.9 1020.9 0.0
28/03:30pm 15.1 10.5 5.6 53 4.5 ESE 19 22 10 12 1020.9 1020.9 0.0
28/03:00pm 14.3 9.5 5.7 56 4.1 E 20 24 11 13 1021.2 1021.2 0.0
28/02:30pm 15.2 11.1 6.0 54 4.4 E 17 20 9 11 1021.3 1021.3 0.0
28/02:00pm 15.2 10.5 5.1 51 4.7 E 19 24 10 13 1021.4 1021.4 0.0
28/01:30pm 16.3 12.1 5.6 49 5.1 S 17 20 9 11 1021.6 1021.6 0.0
28/01:00pm 15.6 10.9 6.1 53 4.6 S 20 26 11 14 1021.7 1021.7 0.0
28/12:30pm 15.9 11.8 6.3 53 4.7 S 17 20 9 11 1021.8 1021.8 0.0
28/12:00pm 15.0 10.4 5.8 54 4.4 S 19 24 10 13 1022.1 1022.1 0.0
28/11:30am 14.9 9.8 6.2 56 4.2 S 22 26 12 14 1022.4 1022.4 0.0
28/11:00am 14.9 12.1 5.1 52 4.6 S 9 15 5 8 1022.6 1022.6 0.0
28/10:30am 14.6 12.4 5.4 54 4.4 NNE 6 7 3 4 1022.7 1022.7 0.0
28/10:00am 13.9 11.7 5.5 57 3.9 S 6 9 3 5 1022.8 1022.8 0.0
28/09:30am 13.2 11.3 5.1 58 3.8 NNE 4 7 2 4 1023.2 1023.2 0.0
28/09:00am 12.3 10.2 5.7 64 3.1 NW 6 11 3 6 1023.3 1023.3 0.0
28/08:30am 12.0 8.6 6.1 67 2.8 W 13 15 7 8 1023.4 1023.4 0.0
28/08:00am 11.4 6.8 5.5 67 2.7 W 19 24 10 13 1023.5 1023.5 0.0
28/07:30am 11.2 7.5 6.1 71 2.4 WSW 15 20 8 11 1023.4 1023.4 0.0
28/07:00am 11.1 8.3 5.2 67 2.7 SW 9 13 5 7 1023.3 1023.3 0.0
28/06:30am 11.0 7.8 5.1 67 2.7 SW 11 17 6 9 1023.0 1023.0 0.0
28/06:00am 11.0 7.4 5.1 67 2.7 SW 13 19 7 10 1023.0 1023.0 0.0
28/05:30am 11.0 7.5 5.3 68 2.6 SSW 13 17 7 9 1022.8 1022.8 0.0
28/05:00am 11.1 7.1 5.0 66 2.8 SW 15 19 8 10 1022.9 1022.9 0.0
28/04:30am 11.3 7.7 5.2 66 2.8 SW 13 17 7 9 1022.7 1022.7 0.0
28/04:00am 11.3 8.3 5.8 69 2.5 SW 11 15 6 8 1022.6 1022.6 0.0
28/03:30am 11.3 9.1 6.2 71 2.4 SSW 7 9 4 5 1022.5 1022.5 0.0
28/03:00am 11.3 9.0 5.8 69 2.5 S 7 11 4 6 1022.4 1022.4 0.0
28/02:30am 11.3 8.3 6.0 70 2.5 S 11 13 6 7 1022.7 1022.7 0.0
28/02:00am 11.3 7.9 5.8 69 2.5 S 13 17 7 9 1023.0 1023.0 0.0
28/01:30am 11.4 8.1 6.3 71 2.4 S 13 17 7 9 1023.2 1023.2 0.0
28/01:00am 11.4 8.4 6.1 70 2.5 S 11 17 6 9 1023.4 1023.4 0.0
28/12:30am 11.3 9.1 6.0 70 2.5 S 7 11 4 6 1023.7 1023.7 0.0
28/12:00am 11.4 8.4 5.9 69 2.5 S 11 15 6 8 1023.8 1023.8 0.0
 
Date/Time
EDT
Tmp

°C
App
Tmp
°C
Dew
Point
°C
Rel
Hum
%
Delta-T

°C
Wind Press
QNH
hPa
Press
MSL
hPa
Rain
since
9 am
mm
Dir
 
Spd
km/h
Gust
km/h
Spd
kts
Gust
kts
27/11:30pm 11.5 7.8 6.2 70 2.5 S 15 19 8 10 1024.0 1024.0 0.0
27/11:00pm 11.6 6.9 6.1 69 2.6 SSW 20 22 11 12 1024.0 1024.0 0.0
27/10:30pm 11.7 6.2 5.8 67 2.8 S 24 28 13 15 1024.2 1024.2 0.0
27/10:00pm 11.9 6.8 6.0 67 2.8 SSW 22 24 12 13 1024.0 1024.0 0.0
27/09:30pm 11.8 7.4 6.5 70 2.5 SSW 19 22 10 12 1024.0 1024.0 0.0
27/09:00pm 12.0 6.5 6.1 67 2.8 SSW 24 30 13 16 1023.9 1023.9 0.0
27/08:30pm 12.3 7.0 7.0 70 2.5 SSW 24 28 13 15 1023.6 1023.6 0.0
27/08:00pm 12.7 8.2 7.0 68 2.7 S 20 26 11 14 1023.4 1023.4 0.0
27/07:30pm 13.4 6.9 6.5 63 3.3 SSW 30 37 16 20 1022.9 1022.9 0.0
27/07:00pm 13.7 6.4 7.2 65 3.2 SSW 35 41 19 22 1022.8 1022.8 0.0
27/06:30pm 14.2 6.3 7.9 66 3.1 SSW 39 46 21 25 1022.4 1022.4 0.0
27/06:00pm 14.4 6.1 7.7 64 3.3 SSW 41 48 22 26 1022.2 1022.2 0.0
27/05:30pm 14.7 6.7 7.3 61 3.6 SSW 39 46 21 25 1022.1 1022.1 0.0
27/05:00pm 14.9 6.9 7.5 61 3.6 SSW 39 44 21 24 1022.3 1022.3 0.0
27/04:30pm 15.2 7.0 8.0 62 3.6 SSW 41 46 22 25 1022.3 1022.3 0.0
27/04:00pm 15.4 7.1 7.7 60 3.8 SSW 41 46 22 25 1022.1 1022.1 0.0
27/03:30pm 15.7 8.1 7.5 58 4.1 S 37 44 20 24 1022.3 1022.3 0.0
27/03:00pm 15.4 7.3 6.9 57 4.2 S 39 44 21 24 1022.1 1022.1 0.0
27/02:30pm 15.7 8.0 7.0 56 4.3 S 37 44 20 24 1022.1 1022.1 0.0
27/02:00pm 16.2 7.9 7.7 57 4.2 S 41 46 22 25 1021.9 1021.9 0.0
27/01:30pm 15.3 6.2 6.1 54 4.4 S 43 48 23 26 1022.0 1022.0 0.0
27/01:00pm 15.0 6.7 6.0 55 4.3 S 39 44 21 24 1022.0 1022.0 0.0
27/12:30pm 15.7 7.3 7.5 58 4.1 S 41 46 22 25 1022.2 1022.2 0.0
27/12:00pm 15.4 7.4 5.9 53 4.5 SSW 37 43 20 23 1022.4 1022.4 0.0
27/11:30am 15.5 6.7 5.7 52 4.7 SSW 41 48 22 26 1022.5 1022.5 0.0
27/11:00am 15.1 7.5 5.9 54 4.4 SSW 35 46 19 25 1022.6 1022.6 0.0
27/10:30am 14.2 6.2 5.8 57 4.0 SSW 37 48 20 26 1022.7 1022.7 0.0
27/10:00am 15.0 7.4 5.8 54 4.4 SSW 35 46 19 25 1022.8 1022.8 0.0
27/09:30am 13.9 4.2 3.7 50 4.6 SW 44 59 24 32 1022.7 1022.7 0.0
27/09:19am 13.7 4.5 3.5 50 4.6 SW 41 61 22 33 1022.4 1022.4 0.0
27/09:00am 13.6 6.2 3.9 52 4.4 SW 32 41 17 22 1022.7 1022.7 0.4
27/08:30am 12.6 5.9 3.6 54 4.0 SW 28 37 15 20 1022.7 1022.7 0.4
27/08:00am 12.5 8.0 4.0 56 3.8 WSW 17 28 9 15 1022.6 1022.6 0.4
27/07:30am 11.5 7.2 3.3 57 3.6 W 15 22 8 12 1022.4 1022.4 0.4
27/07:00am 11.2 6.5 3.0 57 3.6 WNW 17 19 9 10 1022.0 1022.0 0.4
27/06:30am 11.2 6.1 3.3 58 3.5 W 19 24 10 13 1021.7 1021.7 0.4
27/06:00am 11.1 5.7 2.7 56 3.6 W 20 30 11 16 1021.5 1021.5 0.4
27/05:30am 10.6 5.9 3.4 61 3.2 WNW 17 20 9 11 1021.2 1021.2 0.4
27/05:00am 10.7 6.4 3.3 60 3.2 WNW 15 20 8 11 1020.8 1020.8 0.4
27/04:30am 11.0 6.3 3.3 59 3.4 WNW 17 22 9 12 1020.4 1020.4 0.4
27/04:00am 11.4 4.9 2.7 55 3.8 WSW 26 37 14 20 1020.2 1020.2 0.4
27/03:30am 11.4 4.8 4.2 61 3.2 WSW 28 41 15 22 1020.1 1020.1 0.4
27/03:00am 11.4 5.0 3.4 58 3.5 WSW 26 41 14 22 1019.9 1019.9 0.4
27/02:30am 11.3 4.9 3.1 57 3.6 WSW 26 33 14 18 1020.0 1020.0 0.4
27/02:00am 11.3 6.6 2.9 56 3.6 W 17 26 9 14 1020.1 1020.1 0.4
27/01:30am 11.2 7.3 3.5 59 3.4 W 13 17 7 9 1020.3 1020.3 0.4
27/01:00am 11.5 7.3 3.8 59 3.4 W 15 19 8 10 1020.4 1020.4 0.4
27/12:30am 11.3 7.1 3.6 59 3.4 W 15 19 8 10 1020.4 1020.4 0.4
27/12:00am 11.8 7.2 3.8 58 3.6 W 17 22 9 12 1020.3 1020.3 0.4
 
Date/Time
EDT
Tmp

°C
App
Tmp
°C
Dew
Point
°C
Rel
Hum
%
Delta-T

°C
Wind Press
QNH
hPa
Press
MSL
hPa
Rain
since
9 am
mm
Dir
 
Spd
km/h
Gust
km/h
Spd
kts
Gust
kts
26/11:30pm 12.0 7.3 3.0 54 4.0 W 17 24 9 13 1020.2 1020.2 0.4
26/11:00pm 12.2 6.9 3.2 54 4.0 W 20 28 11 15 1020.2 1020.2 0.4
26/10:30pm 12.6 5.1 3.6 54 4.0 WSW 32 43 17 23 1020.0 1020.0 0.4
26/10:00pm 12.9 4.8 3.0 51 4.4 SW 35 48 19 26 1019.6 1019.6 0.4
26/09:30pm 12.8 6.3 4.5 57 3.8 SW 28 35 15 19 1019.5 1019.5 0.4
26/09:00pm 12.9 5.4 4.3 56 3.9 SW 33 43 18 23 1018.9 1018.9 0.4
26/08:30pm 13.2 5.1 5.4 59 3.6 SW 37 48 20 26 1018.3 1018.3 0.4
26/08:00pm 12.8 6.9 7.7 71 2.5 SSW 28 33 15 18 1018.0 1018.0 0.4
26/07:30pm 12.9 5.5 8.2 73 2.3 SSW 37 44 20 24 1017.4 1017.4 0.4
26/07:00pm 13.5 6.5 8.4 71 2.5 SSW 35 41 19 22 1017.2 1017.2 0.4
26/06:30pm 13.6 6.2 8.2 70 2.7 SSW 37 43 20 23 1016.6 1016.6 0.4
26/06:00pm 14.5 7.3 7.8 64 3.3 SSW 35 43 19 23 1016.1 1016.1 0.4
26/05:30pm 14.4 6.8 7.7 64 3.3 SSW 37 44 20 24 1016.1 1016.1 0.4
26/05:00pm 14.8 7.2 7.6 62 3.6 SSW 37 48 20 26 1015.7 1015.7 0.4
26/04:30pm 14.4 6.6 8.4 67 3.0 SSW 39 44 21 24 1015.6 1015.6 0.4
26/04:00pm 13.9 6.0 7.9 67 3.0 SSW 39 46 21 25 1015.4 1015.4 0.4
26/03:30pm 14.1 5.6 8.7 70 2.7 SSW 43 52 23 28 1015.5 1015.5 0.4
26/03:00pm 13.7 4.9 8.1 69 2.8 SSW 44 54 24 29 1015.0 1015.0 0.4
26/02:30pm 14.2 6.2 9.0 71 2.6 SSW 41 48 22 26 1014.9 1014.9 0.4
26/02:00pm 12.1 2.2 8.4 78 1.8 SSW 50 54 27 29 1014.7 1014.7 0.2
26/01:30pm 14.2 7.6 7.9 66 3.1 S 32 37 17 20 1014.7 1014.7 0.0
26/01:00pm 14.8 8.3 6.4 57 4.1 WSW 30 33 16 18 1014.5 1014.5 0.0
26/12:30pm 13.9 6.9 6.7 62 3.5 S 33 41 18 22 1014.3 1014.3 0.0
26/12:00pm 13.6 5.6 7.4 66 3.0 SSW 39 44 21 24 1014.1 1014.1 0.0
26/11:53am 14.0 6.8 9.0 72 2.5 SSW 37 43 20 23 1014.1 1014.1 0.0
26/11:30am 14.5 9.5 6.6 59 3.8 WSW 22 33 12 18 1014.1 1014.1 0.0
26/11:00am 12.7 7.0 6.5 66 3.0 SW 26 39 14 21 1014.0 1014.0 0.0
26/10:30am 14.0 6.7 4.3 52 4.5 WSW 32 43 17 23 1013.2 1013.2 0.0
26/10:00am 14.3 7.5 4.9 53 4.4 WSW 30 41 16 22 1012.8 1012.8 0.0
26/09:49am 14.0 6.4 3.8 50 4.6 WSW 33 54 18 29 1012.7 1012.7 0.0
26/09:30am 14.0 6.5 4.3 52 4.5 W 33 44 18 24 1012.4 1012.4 0.0
26/09:00am 13.7 5.3 3.8 51 4.5 W 37 57 20 31 1012.0 1012.0 0.0
26/08:54am 14.4 7.0 5.0 53 4.4 W 33 57 18 31 1012.0 1012.0 0.0
26/08:30am 14.2 8.0 4.2 51 4.6 W 26 41 14 22 1011.8 1011.8 0.0
26/08:00am 13.7 7.4 3.5 50 4.6 W 26 39 14 21 1011.5 1011.5 0.0
26/07:30am 13.5 8.3 3.6 51 4.5 WSW 20 24 11 13 1011.1 1011.1 0.0
26/07:00am 13.2 5.8 4.9 57 3.8 W 33 43 18 23 1010.7 1010.7 0.0
26/06:30am 12.0 7.6 7.5 74 2.2 SSW 20 26 11 14 1010.4 1010.4 0.0
26/06:00am 12.0 9.0 7.7 75 2.1 WSW 13 22 7 12 1010.0 1010.0 0.0
26/05:30am 11.3 9.0 9.0 86 1.1 S 11 15 6 8 1009.9 1009.9 0.0
26/05:00am 11.3 9.4 9.0 86 1.1 SSW 9 13 5 7 1009.4 1009.4 0.0
26/04:30am 11.8 7.6 7.5 75 2.1 NNW 19 24 10 13 1009.1 1009.1 0.0
26/04:00am 12.5 7.8 7.6 72 2.4 NW 22 26 12 14 1008.5 1008.5 0.0
26/03:30am 12.7 6.5 6.3 65 3.0 N 28 35 15 19 1008.3 1008.3 0.0
26/03:00am 12.9 5.9 6.7 66 3.0 N 33 41 18 22 1008.1 1008.1 0.0
26/02:30am 13.0 5.5 6.4 64 3.1 N 35 41 19 22 1008.4 1008.4 0.0
26/02:00am 13.0 5.8 6.1 63 3.3 N 33 37 18 20 1008.5 1008.5 0.0
26/01:30am 13.1 6.4 5.8 61 3.4 N 30 37 16 20 1008.6 1008.6 0.0
26/01:00am 12.8 6.9 5.7 62 3.3 NNW 26 32 14 17 1009.4 1009.4 0.0
26/12:30am 12.8 6.3 4.8 58 3.7 NNW 28 39 15 21 1009.8 1009.8 0.0
26/12:00am 12.7 6.7 5.4 61 3.4 NNW 26 33 14 18 1010.3 1010.3 0.0
 
Date/Time
EDT
Tmp

°C
App
Tmp
°C
Dew
Point
°C
Rel
Hum
%
Delta-T

°C
Wind Press
QNH
hPa
Press
MSL
hPa
Rain
since
9 am
mm
Dir
 
Spd
km/h
Gust
km/h
Spd
kts
Gust
kts
25/11:30pm 12.6 7.0 5.5 62 3.3 NW 24 37 13 20 1010.7 1010.7 0.0
25/11:00pm 12.4 6.3 4.9 60 3.5 NW 26 39 14 21 1011.1 1011.1 0.0
25/10:30pm 12.3 7.4 4.3 58 3.6 NW 19 30 10 16 1011.2 1011.2 0.0
25/10:00pm 12.6 8.5 4.3 57 3.8 NNW 15 20 8 11 1011.5 1011.5 0.0
25/09:30pm 13.0 8.0 4.7 57 3.8 NW 20 28 11 15 1011.3 1011.3 0.0
25/09:00pm 13.2 8.9 5.1 58 3.8 WNW 17 26 9 14 1010.9 1010.9 0.0
25/08:30pm 13.4 8.5 4.0 53 4.3 W 19 28 10 15 1010.8 1010.8 0.0
25/08:00pm 13.7 7.6 4.6 54 4.2 W 26 32 14 17 1010.6 1010.6 0.0
25/07:30pm 14.5 8.2 3.9 49 4.9 W 26 41 14 22 1010.0 1010.0 0.0
25/07:00pm 15.0 9.8 3.8 47 5.1 W 20 30 11 16 1009.6 1009.6 0.0
25/06:30pm 15.7 8.4 4.7 48 5.2 W 32 48 17 26 1008.9 1008.9 0.0
25/06:24pm 15.7 8.1 4.1 46 5.4 W 33 54 18 29 1008.9 1008.9 0.0
25/06:00pm 15.8 6.9 5.1 49 5.1 W 41 57 22 31 1008.6 1008.6 0.0
25/05:32pm 16.6 10.2 5.3 47 5.4 W 28 50 15 27 1008.3 1008.3 0.0
25/05:30pm 16.5 11.2 6.6 52 4.9 WSW 24 37 13 20 1008.4 1008.4 0.0
25/05:00pm 15.6 8.8 7.1 57 4.2 W 32 46 17 25 1007.9 1007.9 0.0

Latest Capital City Observations: Canberra | Sydney | Melbourne | Brisbane | Adelaide | Perth | Hobart | Darwin

Other Formats:

Comma delimited format used in spreadsheet applications
http://www.bom.gov.au/fwo/IDT60901/IDT60901.95988.axf

JavaScript Object Notation format (JSON) in row-major order
http://www.bom.gov.au/fwo/IDT60901/IDT60901.95988.json